Time;durP1;ratioP1;P1;durP2;ratioP2;P2;SDS_P1;SDS_P2;PMS_P1;PMS_P2;Temp;Humidity;BMP_temperature;BMP_pressure;BME280_temperature;BME280_humidity;BME280_pressure;Samples;Min_cycle;Max_cycle;Signal;HPM_P1;HPM_P2
2023/06/19 00:00:50;;;;;;;5.72;4.65;;;;;;;17.57;78.95;94690.69;5122051;28;20189;-74
2023/06/19 00:03:17;;;;;;;5.65;4.22;;;;;;;17.49;79.07;94699.19;5117753;28;20281;-74
2023/06/19 00:05:45;;;;;;;4.65;3.08;;;;;;;17.52;79.35;94699.22;5123849;28;20205;-74
2023/06/19 00:08:12;;;;;;;7.95;3.70;;;;;;;17.56;78.77;94697.31;5107590;28;20718;-74
2023/06/19 00:10:39;;;;;;;3.63;3.03;;;;;;;17.50;79.68;94696.03;5124211;28;20208;-74
2023/06/19 00:13:06;;;;;;;4.45;3.05;;;;;;;17.60;78.65;94695.44;5117138;28;20205;-74
2023/06/19 00:15:33;;;;;;;5.75;4.00;;;;;;;17.62;78.70;94698.59;5115912;28;20203;-74
2023/06/19 00:18:01;;;;;;;5.07;3.45;;;;;;;17.62;78.48;94690.38;5116985;28;20225;-74
2023/06/19 00:20:28;;;;;;;7.38;4.22;;;;;;;17.63;78.74;94694.69;5120907;28;20190;-74
2023/06/19 00:22:54;;;;;;;4.65;3.80;;;;;;;17.52;79.18;94688.25;5123201;28;20201;-74
2023/06/19 00:25:21;;;;;;;5.72;4.30;;;;;;;17.47;79.84;94679.59;5115999;28;20197;-74
2023/06/19 00:27:48;;;;;;;7.07;3.50;;;;;;;17.52;79.09;94687.47;5117102;28;20202;-74
2023/06/19 00:30:15;;;;;;;6.15;2.85;;;;;;;17.54;78.51;94683.19;5122598;28;20198;-74
2023/06/19 00:32:47;;;;;;;4.47;3.95;;;;;;;17.44;79.15;94683.84;5095681;28;20676;-74
2023/06/19 00:35:16;;;;;;;4.90;4.32;;;;;;;17.37;79.27;94681.00;5109448;28;20442;-74
2023/06/19 00:37:44;;;;;;;4.57;3.10;;;;;;;17.26;79.75;94677.31;5127071;27;20576;-74
2023/06/19 00:40:20;;;;;;;4.28;3.25;;;;;;;17.29;79.15;94668.38;5114705;27;20201;-74
2023/06/19 00:42:47;;;;;;;5.28;3.50;;;;;;;17.26;79.41;94667.16;5127027;27;20295;-74
2023/06/19 00:45:14;;;;;;;6.57;3.75;;;;;;;17.27;79.58;94676.16;5113569;28;20208;-74
2023/06/19 00:47:41;;;;;;;5.72;4.03;;;;;;;17.19;80.05;94671.75;5127093;27;20201;-74
2023/06/19 00:50:08;;;;;;;5.38;3.60;;;;;;;17.10;80.29;94671.97;5117121;27;20721;-74
2023/06/19 00:52:36;;;;;;;5.90;4.22;;;;;;;17.05;80.77;94664.88;5117545;27;20212;-74
2023/06/19 00:55:04;;;;;;;6.43;4.35;;;;;;;17.10;79.84;94660.25;5122367;27;20198;-74
2023/06/19 00:57:31;;;;;;;9.02;3.95;;;;;;;17.07;80.24;94661.78;5113212;28;20237;-74
2023/06/19 00:59:58;;;;;;;5.43;3.70;;;;;;;16.96;80.71;94656.13;5113006;28;20198;-74
2023/06/19 01:02:25;;;;;;;6.57;4.32;;;;;;;16.87;80.96;94650.13;5126806;27;20883;-74
2023/06/19 01:04:52;;;;;;;5.13;3.50;;;;;;;16.75;81.95;94653.06;5125300;27;20877;-74
2023/06/19 01:07:24;;;;;;;5.40;3.60;;;;;;;16.69;82.16;94651.78;5119692;27;20544;-74
2023/06/19 01:09:57;;;;;;;6.22;3.40;;;;;;;16.66;82.26;94652.53;5119958;27;20587;-74
2023/06/19 01:12:31;;;;;;;4.80;3.80;;;;;;;16.55;83.02;94646.03;5102609;27;20832;-74
2023/06/19 01:14:59;;;;;;;5.80;3.17;;;;;;;16.47;83.24;94647.09;5099397;28;20206;-74
2023/06/19 01:17:27;;;;;;;5.65;4.47;;;;;;;16.63;82.26;94650.53;5121580;27;20579;-74
2023/06/19 01:19:54;;;;;;;5.43;3.80;;;;;;;16.49;82.96;94648.31;5116831;27;20297;-74
2023/06/19 01:22:27;;;;;;;5.00;4.20;;;;;;;16.42;83.65;94652.84;5113001;28;20201;-74
2023/06/19 01:24:54;;;;;;;5.50;4.30;;;;;;;16.48;82.99;94648.66;5126814;27;20208;-74
2023/06/19 01:27:21;;;;;;;8.85;4.10;;;;;;;16.52;82.87;94652.25;5112681;28;20205;-74
2023/06/19 01:29:48;;;;;;;6.22;3.92;;;;;;;16.56;82.41;94647.63;5099232;28;21045;-74
2023/06/19 01:32:20;;;;;;;6.20;3.70;;;;;;;16.51;83.10;94650.69;5112642;28;20664;-74
2023/06/19 01:34:47;;;;;;;4.85;3.50;;;;;;;16.45;83.26;94646.66;5099207;28;20198;-74
2023/06/19 01:37:15;;;;;;;6.57;3.65;;;;;;;16.55;82.53;94651.50;5123441;27;20229;-74
2023/06/19 01:39:45;;;;;;;5.25;3.38;;;;;;;16.63;81.94;94648.56;5116398;27;20220;-74
2023/06/19 01:42:14;;;;;;;6.20;4.10;;;;;;;16.60;82.43;94657.47;5111234;28;20245;-74
2023/06/19 01:44:41;;;;;;;5.20;3.28;;;;;;;16.59;82.37;94663.31;5125072;27;20295;-74
2023/06/19 01:47:10;;;;;;;6.00;3.10;;;;;;;16.53;82.66;94662.84;5125633;27;20609;-74
2023/06/19 01:49:37;;;;;;;6.50;3.50;;;;;;;16.57;82.05;94660.94;5102470;27;20201;-74
2023/06/19 01:52:05;;;;;;;5.25;3.60;;;;;;;16.54;82.42;94664.38;5125660;27;20267;-74
2023/06/19 01:54:31;;;;;;;5.72;3.30;;;;;;;16.59;82.29;94669.56;5118976;27;20631;-74
2023/06/19 01:57:00;;;;;;;5.13;3.70;;;;;;;16.54;82.65;94655.41;5118086;27;20649;-74
2023/06/19 01:59:26;;;;;;;5.25;3.47;;;;;;;16.43;83.29;94665.34;5130040;27;20200;-74
2023/06/19 02:01:53;;;;;;;5.18;3.30;;;;;;;16.47;82.72;94661.53;5125094;27;20193;-74
2023/06/19 02:04:20;;;;;;;7.10;3.40;;;;;;;16.50;82.70;94673.72;5120278;27;20702;-74
2023/06/19 02:06:47;;;;;;;4.65;3.55;;;;;;;16.46;83.04;94670.09;5118828;27;20202;-74
2023/06/19 02:09:14;;;;;;;5.43;3.75;;;;;;;16.46;82.91;94683.78;5123584;27;20647;-73
2023/06/19 02:11:40;;;;;;;5.20;3.67;;;;;;;16.31;83.95;94678.06;5111704;28;20247;-73
2023/06/19 02:14:11;;;;;;;5.63;4.25;;;;;;;16.22;84.46;94677.50;5120439;27;20663;-73
2023/06/19 02:16:38;;;;;;;6.07;3.45;;;;;;;16.21;84.50;94678.66;5118232;27;20652;-73
2023/06/19 02:19:04;;;;;;;7.35;3.88;;;;;;;16.13;85.03;94685.13;5122371;27;20233;-73
2023/06/19 02:21:31;;;;;;;4.50;3.88;;;;;;;16.03;85.78;94680.25;5111033;28;20204;-73
2023/06/19 02:23:58;;;;;;;4.38;3.42;;;;;;;15.91;87.78;94683.91;5121356;27;20311;-73
2023/06/19 02:26:27;;;;;;;7.10;3.78;;;;;;;15.86;88.37;94680.66;5118468;27;20253;-73
2023/06/19 02:28:54;;;;;;;5.40;3.58;;;;;;;15.77;89.21;94678.16;5121688;27;20406;-73
2023/06/19 02:31:22;;;;;;;4.38;3.60;;;;;;;15.67;89.94;94683.41;5110292;28;20217;-74
2023/06/19 02:33:49;;;;;;;4.90;3.90;;;;;;;15.54;90.99;94680.78;5100644;28;20210;-73
2023/06/19 02:36:19;;;;;;;7.28;3.75;;;;;;;15.45;92.40;94688.38;5113177;27;20261;-73
2023/06/19 02:38:46;;;;;;;5.55;3.45;;;;;;;15.38;92.94;94688.22;5120269;27;20269;-73
2023/06/19 02:41:13;;;;;;;7.70;5.10;;;;;;;15.26;93.29;94691.06;5114158;27;20198;-74
2023/06/19 02:43:41;;;;;;;5.60;4.25;;;;;;;15.21;93.92;94692.13;5098774;28;20247;-73
2023/06/19 02:46:08;;;;;;;5.07;4.10;;;;;;;15.19;94.26;94696.34;5109339;28;20281;-73
2023/06/19 02:48:36;;;;;;;9.90;4.57;;;;;;;15.08;95.23;94707.03;5122988;27;20209;-74
2023/06/19 02:51:03;;;;;;;6.10;3.90;;;;;;;15.04;95.35;94705.34;5111782;27;20676;-74
2023/06/19 02:53:29;;;;;;;7.45;4.63;;;;;;;15.06;95.73;94708.50;5122981;27;20667;-73
2023/06/19 02:55:56;;;;;;;7.07;4.75;;;;;;;15.06;95.67;94703.06;5117557;27;20740;-73
2023/06/19 02:58:23;;;;;;;6.03;4.50;;;;;;;15.08;95.64;94711.69;5118865;27;20772;-73
2023/06/19 03:00:50;;;;;;;8.70;4.28;;;;;;;15.08;96.51;94706.22;5109206;28;20271;-74
2023/06/19 03:03:17;;;;;;;7.82;4.63;;;;;;;15.31;94.60;94704.41;5123409;27;20250;-74
2023/06/19 03:05:45;;;;;;;4.82;3.92;;;;;;;15.51;94.28;94703.34;5116827;27;20261;-74
2023/06/19 03:08:12;;;;;;;5.90;4.00;;;;;;;15.85;93.38;94698.22;5117967;27;20198;-74
2023/06/19 03:10:39;;;;;;;7.80;4.88;;;;;;;16.24;91.37;94688.88;5100662;28;20220;-74
2023/06/19 03:13:05;;;;;;;6.80;5.10;;;;;;;16.61;89.74;94689.16;5110765;28;20201;-74
2023/06/19 03:15:32;;;;;;;9.40;5.05;;;;;;;16.85;88.01;94704.44;5117365;27;20260;-74
2023/06/19 03:17:59;;;;;;;9.25;4.80;;;;;;;17.17;86.52;94698.69;5103905;28;20299;-74
2023/06/19 03:20:25;;;;;;;7.47;5.15;;;;;;;17.44;85.20;94686.59;5121268;27;20201;-74
2023/06/19 03:22:54;;;;;;;8.00;4.90;;;;;;;18.23;81.68;94689.19;5110293;28;20197;-74
2023/06/19 03:25:20;;;;;;;6.95;5.03;;;;;;;18.83;78.72;94688.28;5117931;27;20196;-74
2023/06/19 03:27:47;;;;;;;8.77;5.75;;;;;;;19.52;74.93;94679.03;5117295;27;20205;-75
2023/06/19 03:30:14;;;;;;;6.15;4.53;;;;;;;20.04;72.58;94679.69;5122912;27;20189;-75
2023/06/19 03:32:41;;;;;;;6.22;4.97;;;;;;;20.02;70.81;94681.25;5123995;27;20197;-75
2023/06/19 03:35:10;;;;;;;7.53;5.10;;;;;;;20.29;70.92;94685.28;5109851;28;20205;-75
2023/06/19 03:37:36;;;;;;;5.85;4.55;;;;;;;21.02;69.10;94683.09;5123616;27;20336;-74
2023/06/19 03:40:07;;;;;;;7.72;5.10;;;;;;;21.54;65.30;94680.75;5108883;28;20266;-74
2023/06/19 03:42:34;;;;;;;6.25;4.97;;;;;;;21.22;64.59;94681.56;5111477;27;20245;-73
2023/06/19 03:45:01;;;;;;;5.97;4.45;;;;;;;21.16;64.96;94680.34;5112328;27;20232;-73
2023/06/19 03:47:28;;;;;;;6.10;4.43;;;;;;;21.13;64.15;94678.38;5106519;28;20743;-73
2023/06/19 03:49:55;;;;;;;5.95;4.25;;;;;;;21.06;64.58;94678.38;5102548;27;20250;-74
2023/06/19 03:52:21;;;;;;;5.72;4.07;;;;;;;21.24;63.60;94679.19;5092934;28;20606;-72
2023/06/19 03:54:48;;;;;;;6.57;4.40;;;;;;;21.38;62.68;94683.91;5102513;27;20561;-73
2023/06/19 03:57:16;;;;;;;5.55;4.15;;;;;;;22.00;61.17;94674.38;5107103;28;20614;-73
2023/06/19 03:59:43;;;;;;;9.05;4.03;;;;;;;21.71;61.14;94674.41;5107236;28;20225;-74
2023/06/19 04:02:10;;;;;;;4.93;4.30;;;;;;;21.98;60.00;94677.50;5107254;28;20208;-73
2023/06/19 04:04:37;;;;;;;5.47;4.40;;;;;;;21.73;60.37;94677.53;5109227;28;20532;-73
2023/06/19 04:07:04;;;;;;;4.80;3.90;;;;;;;22.44;59.16;94666.28;5096816;28;20198;-75
2023/06/19 04:09:30;;;;;;;5.30;4.00;;;;;;;22.75;57.90;94672.03;5108414;28;20225;-74
2023/06/19 04:11:57;;;;;;;5.10;4.45;;;;;;;23.62;56.10;94671.78;5104937;28;20194;-74
2023/06/19 04:14:25;;;;;;;6.20;3.67;;;;;;;23.46;55.63;94663.22;5108902;28;20576;-74
2023/06/19 04:16:52;;;;;;;6.32;4.20;;;;;;;24.35;52.45;94663.06;5111341;27;20209;-73
2023/06/19 04:19:19;;;;;;;5.85;4.05;;;;;;;24.55;52.83;94664.00;5112329;27;20274;-74
2023/06/19 04:21:46;;;;;;;9.13;4.25;;;;;;;25.08;51.42;94659.69;5113803;27;20192;-75
2023/06/19 04:24:12;;;;;;;7.53;3.95;;;;;;;25.64;49.63;94657.22;5113546;27;20204;-75
2023/06/19 04:26:39;;;;;;;5.97;3.88;;;;;;;26.26;48.17;94652.84;5107457;28;20263;-75
2023/06/19 04:29:07;;;;;;;5.47;3.75;;;;;;;27.26;45.49;94657.81;5105757;28;20253;-75
2023/06/19 04:31:40;;;;;;;5.63;3.85;;;;;;;26.67;45.23;94661.53;5113581;27;20571;-75
2023/06/19 04:34:07;;;;;;;6.55;3.75;;;;;;;27.48;44.73;94661.63;5113327;28;20201;-75
2023/06/19 04:36:34;;;;;;;6.03;4.03;;;;;;;27.05;45.09;94658.34;5112948;28;20556;-75
2023/06/19 04:39:01;;;;;;;4.20;3.80;;;;;;;25.46;48.82;94657.47;5126516;27;20514;-74
2023/06/19 04:41:27;;;;;;;7.00;4.20;;;;;;;24.83;49.05;94665.59;5108373;28;20296;-74
2023/06/19 04:43:54;;;;;;;7.60;4.28;;;;;;;24.81;49.77;94668.00;5112855;28;20209;-74
2023/06/19 04:46:21;;;;;;;5.22;3.95;;;;;;;25.63;48.46;94656.44;5105716;27;20205;-75
2023/06/19 04:48:50;;;;;;;8.07;4.05;;;;;;;25.83;48.58;94665.56;5105572;27;20288;-75
2023/06/19 04:51:20;;;;;;;5.80;4.18;;;;;;;25.03;47.80;94662.94;5108094;28;20210;-74
2023/06/19 04:53:46;;;;;;;4.30;3.90;;;;;;;24.98;49.83;94666.19;5112853;28;20198;-74
2023/06/19 04:56:13;;;;;;;5.85;3.90;;;;;;;25.00;49.26;94664.59;5112448;28;20202;-73
2023/06/19 04:58:45;;;;;;;5.90;4.18;;;;;;;23.75;52.41;94664.53;5109749;27;20236;-74
2023/06/19 05:01:12;;;;;;;5.40;4.03;;;;;;;24.89;50.70;94663.13;5110981;28;20189;-75
2023/06/19 05:03:39;;;;;;;9.63;4.50;;;;;;;25.92;48.34;94656.69;5109529;28;20197;-76
2023/06/19 05:06:07;;;;;;;7.38;4.25;;;;;;;27.80;46.72;94658.06;5091864;28;20392;-74
2023/06/19 05:08:34;;;;;;;8.48;4.63;;;;;;;27.64;44.19;94660.88;5107368;28;20222;-72
2023/06/19 05:11:00;;;;;;;5.50;4.25;;;;;;;27.37;44.31;94658.34;5112362;28;20210;-72
2023/06/19 05:13:27;;;;;;;5.95;4.10;;;;;;;28.22;43.56;94650.59;5111839;28;20282;-73
2023/06/19 05:15:55;;;;;;;4.50;4.07;;;;;;;27.82;44.35;94661.19;5112348;28;20206;-73
2023/06/19 05:18:22;;;;;;;5.97;4.05;;;;;;;27.61;44.02;94660.97;5108990;28;20237;-73
2023/06/19 05:20:49;;;;;;;5.47;4.05;;;;;;;27.37;44.81;94663.91;5092081;28;20218;-73
2023/06/19 05:23:17;;;;;;;6.25;3.72;;;;;;;26.91;45.39;94659.44;5106685;28;20696;-73
2023/06/19 05:25:44;;;;;;;5.40;3.50;;;;;;;26.95;45.75;94664.91;5111795;28;20620;-72
2023/06/19 05:28:11;;;;;;;4.60;4.00;;;;;;;26.73;45.42;94670.94;5094185;28;20206;-71
2023/06/19 05:30:37;;;;;;;6.10;4.10;;;;;;;26.52;45.83;94671.38;5091441;28;20637;-72
2023/06/19 05:33:04;;;;;;;6.50;3.83;;;;;;;26.64;46.00;94684.66;5108179;28;20254;-72
2023/06/19 05:35:31;;;;;;;5.53;4.10;;;;;;;27.00;44.81;94686.66;5111978;28;20198;-71
2023/06/19 05:37:58;;;;;;;4.93;3.80;;;;;;;26.58;46.83;94689.13;5107327;28;20241;-73
2023/06/19 05:40:26;;;;;;;5.35;4.13;;;;;;;27.04;45.46;94695.72;5091156;28;20210;-73
2023/06/19 05:42:55;;;;;;;4.78;3.63;;;;;;;28.07;43.68;94690.38;5113204;27;20232;-73
2023/06/19 05:45:22;;;;;;;4.90;3.60;;;;;;;27.34;45.02;94692.59;5118991;27;20306;-73
2023/06/19 05:47:49;;;;;;;8.90;4.28;;;;;;;27.39;44.84;94694.88;5105237;28;20210;-72
2023/06/19 05:50:16;;;;;;;8.20;4.00;;;;;;;27.87;43.74;94696.09;5094768;28;20517;-72
2023/06/19 05:52:43;;;;;;;6.20;4.20;;;;;;;27.28;44.72;94694.34;5092047;28;20264;-71
2023/06/19 05:55:10;;;;;;;5.63;3.70;;;;;;;28.64;43.00;94692.41;5095009;28;20215;-72
2023/06/19 05:57:38;;;;;;;6.03;4.03;;;;;;;27.78;43.79;94688.34;5111213;28;20224;-73
2023/06/19 06:00:06;;;;;;;4.53;3.63;;;;;;;26.31;46.50;94694.06;5098260;28;20230;-73
2023/06/19 06:02:33;;;;;;;10.00;3.65;;;;;;;27.28;45.80;94694.34;5090770;28;20236;-73
2023/06/19 06:05:00;;;;;;;6.35;3.83;;;;;;;27.42;45.42;94698.78;5091030;28;20206;-73
2023/06/19 06:07:28;;;;;;;7.60;3.70;;;;;;;27.37;44.83;94702.88;5117788;27;20209;-73
2023/06/19 06:09:55;;;;;;;5.18;3.78;;;;;;;26.54;46.89;94696.75;5103842;27;20728;-74
2023/06/19 06:12:22;;;;;;;5.15;3.88;;;;;;;25.63;47.98;94711.16;5090321;28;20213;-73
2023/06/19 06:14:50;;;;;;;7.38;4.00;;;;;;;27.42;46.19;94702.34;5090568;28;20260;-72
2023/06/19 06:17:17;;;;;;;3.63;3.30;;;;;;;28.44;43.25;94705.72;5098126;28;20508;-74
2023/06/19 06:19:43;;;;;;;4.18;3.67;;;;;;;27.90;44.46;94698.78;5106911;27;20625;-74
2023/06/19 06:22:10;;;;;;;4.60;3.72;;;;;;;28.11;43.73;94710.59;5110680;28;20216;-75
2023/06/19 06:24:38;;;;;;;7.35;3.60;;;;;;;26.67;46.21;94699.66;5111392;27;20251;-76
2023/06/19 06:27:06;;;;;;;3.95;3.35;;;;;;;26.23;46.53;94709.28;5115347;27;20202;-74
2023/06/19 06:29:32;;;;;;;4.35;3.60;;;;;;;26.50;47.30;94712.72;5089801;28;20202;-75
2023/06/19 06:32:06;;;;;;;6.60;3.95;;;;;;;26.00;48.30;94708.09;5090118;28;20519;-75
2023/06/19 06:34:33;;;;;;;5.88;4.07;;;;;;;27.66;46.46;94711.34;5105875;28;20240;-75
2023/06/19 06:37:00;;;;;;;4.28;3.67;;;;;;;26.62;47.29;94703.75;5110179;28;20712;-76
2023/06/19 06:39:27;;;;;;;7.35;4.13;;;;;;;26.45;48.65;94705.66;5112263;27;20233;-76
2023/06/19 06:41:54;;;;;;;5.60;4.20;;;;;;;27.38;45.71;94709.22;5106290;28;20225;-74
2023/06/19 06:44:20;;;;;;;4.88;3.80;;;;;;;26.39;48.20;94712.13;5103629;28;20556;-74
2023/06/19 06:46:47;;;;;;;6.65;3.70;;;;;;;26.97;48.06;94716.09;5099072;28;20263;-75
2023/06/19 06:49:16;;;;;;;5.43;4.03;;;;;;;26.13;48.26;94716.56;5091076;28;20680;-74
2023/06/19 06:51:43;;;;;;;7.38;4.10;;;;;;;26.57;47.48;94718.13;5108460;28;20251;-75
2023/06/19 06:54:10;;;;;;;4.82;3.70;;;;;;;27.85;46.31;94716.03;5119023;27;20275;-75
2023/06/19 06:56:37;;;;;;;5.72;3.47;;;;;;;27.54;44.04;94712.78;5089453;28;20241;-75
2023/06/19 06:59:03;;;;;;;6.35;3.55;;;;;;;29.03;40.67;94701.63;5095510;28;20307;-75
2023/06/19 07:01:30;;;;;;;6.07;3.75;;;;;;;29.86;40.47;94696.59;5109463;28;20205;-74
2023/06/19 07:03:57;;;;;;;4.22;3.70;;;;;;;28.11;42.28;94713.38;5091126;28;20207;-75
2023/06/19 07:06:25;;;;;;;5.47;3.60;;;;;;;27.50;43.81;94716.88;5089774;28;20259;-75
2023/06/19 07:08:52;;;;;;;7.07;4.03;;;;;;;29.08;41.64;94704.66;5094263;28;20222;-76
2023/06/19 07:11:19;;;;;;;4.70;4.20;;;;;;;27.41;44.10;94720.25;5106323;28;20210;-75
2023/06/19 07:13:46;;;;;;;3.63;3.33;;;;;;;27.52;42.07;94714.44;5090476;28;20206;-75
2023/06/19 07:16:12;;;;;;;5.13;3.83;;;;;;;27.27;45.70;94709.47;5089479;28;20259;-76
2023/06/19 07:18:41;;;;;;;3.63;3.33;;;;;;;27.53;43.91;94711.22;5088957;28;20563;-75
2023/06/19 07:21:13;;;;;;;3.97;3.53;;;;;;;27.66;42.67;94714.13;5102807;28;20197;-76
2023/06/19 07:23:41;;;;;;;7.22;3.72;;;;;;;27.88;42.06;94709.56;5109340;28;20198;-76
2023/06/19 07:26:08;;;;;;;3.70;3.40;;;;;;;27.08;42.86;94724.22;5109406;28;20238;-74
2023/06/19 07:28:36;;;;;;;3.90;3.50;;;;;;;28.47;42.09;94715.97;5109178;28;20656;-76
2023/06/19 07:31:03;;;;;;;5.20;3.50;;;;;;;29.03;40.32;94707.22;5102321;28;20759;-75
2023/06/19 07:33:30;;;;;;;4.10;3.70;;;;;;;28.11;40.31;94719.72;5095359;28;20262;-74
2023/06/19 07:35:57;;;;;;;4.07;3.58;;;;;;;27.88;40.49;94725.50;5109232;28;20197;-75
2023/06/19 07:38:24;;;;;;;4.18;3.78;;;;;;;28.52;39.62;94723.81;5109219;28;20668;-74
2023/06/19 07:40:52;;;;;;;4.00;3.60;;;;;;;28.13;40.50;94725.66;5108190;28;20241;-76
2023/06/19 07:43:19;;;;;;;5.55;3.45;;;;;;;25.86;46.49;94725.00;5088513;28;20716;-74
2023/06/19 07:45:45;;;;;;;5.50;4.28;;;;;;;25.55;47.40;94742.97;5103291;28;20611;-74
2023/06/19 07:48:12;;;;;;;5.20;4.18;;;;;;;25.25;48.73;94730.75;5108944;28;20661;-75
2023/06/19 07:50:39;;;;;;;4.43;3.67;;;;;;;25.57;46.33;94723.88;5106276;28;20197;-73
2023/06/19 07:53:05;;;;;;;6.05;4.20;;;;;;;25.36;48.33;94728.59;5100584;28;20206;-75
2023/06/19 07:55:35;;;;;;;8.20;3.92;;;;;;;25.86;47.98;94727.78;5088541;28;20209;-75
2023/06/19 07:58:03;;;;;;;4.47;4.07;;;;;;;26.98;45.20;94723.25;5099721;28;20202;-76
2023/06/19 08:00:30;;;;;;;4.10;3.38;;;;;;;26.80;44.83;94728.34;5105637;28;20553;-76
2023/06/19 08:02:57;;;;;;;6.00;3.90;;;;;;;25.79;45.60;94725.13;5098444;28;20202;-75
2023/06/19 08:05:24;;;;;;;3.90;3.50;;;;;;;25.37;48.13;94732.94;5105528;28;20794;-76
2023/06/19 08:07:51;;;;;;;5.90;4.10;;;;;;;26.03;45.66;94726.69;5109697;28;20299;-74
2023/06/19 08:10:17;;;;;;;4.28;3.88;;;;;;;26.41;45.86;94720.84;5102248;28;20601;-76
2023/06/19 08:12:45;;;;;;;6.00;3.85;;;;;;;26.89;45.54;94723.81;5108671;28;20201;-76
2023/06/19 08:15:14;;;;;;;3.95;3.58;;;;;;;26.62;44.88;94722.41;5103684;28;20717;-74
2023/06/19 08:17:41;;;;;;;6.40;3.70;;;;;;;27.75;42.84;94713.50;5111206;28;20193;-76
2023/06/19 08:20:09;;;;;;;6.72;4.45;;;;;;;27.80;42.38;94718.53;5098199;28;20258;-75
2023/06/19 08:22:36;;;;;;;3.53;3.22;;;;;;;26.77;40.45;94724.47;5108952;28;20286;-75
2023/06/19 08:25:03;;;;;;;3.72;3.20;;;;;;;26.56;41.21;94722.13;5117428;28;20640;-75
2023/06/19 08:27:30;;;;;;;4.10;3.38;;;;;;;27.10;42.09;94727.34;5088435;28;20260;-74
2023/06/19 08:29:56;;;;;;;6.22;3.22;;;;;;;25.78;43.90;94724.34;5106452;28;20209;-74
2023/06/19 08:32:25;;;;;;;5.18;3.15;;;;;;;26.08;42.56;94728.97;5096511;28;20276;-75
2023/06/19 08:34:52;;;;;;;5.65;3.55;;;;;;;25.74;43.82;94720.06;5087995;28;20210;-74
2023/06/19 08:37:19;;;;;;;3.72;3.22;;;;;;;25.96;44.35;94724.03;5088064;28;20206;-75
2023/06/19 08:39:46;;;;;;;6.18;3.47;;;;;;;26.54;41.93;94719.75;5094886;28;20775;-75
2023/06/19 08:42:13;;;;;;;5.45;3.33;;;;;;;26.95;41.31;94717.75;5107365;28;20707;-75
2023/06/19 08:44:39;;;;;;;5.80;3.75;;;;;;;26.06;42.79;94728.63;5095291;28;20198;-74
2023/06/19 08:47:07;;;;;;;5.47;3.42;;;;;;;25.45;42.01;94723.28;5106784;28;20198;-74
2023/06/19 08:49:36;;;;;;;6.80;3.40;;;;;;;25.93;43.73;94713.00;5107031;28;20210;-75
2023/06/19 08:52:03;;;;;;;4.43;3.40;;;;;;;25.81;42.07;94729.06;5107357;28;20656;-76
2023/06/19 08:54:30;;;;;;;3.92;3.20;;;;;;;25.42;41.13;94723.34;5087970;28;20255;-75
2023/06/19 08:57:00;;;;;;;4.45;3.70;;;;;;;25.72;42.79;94719.69;5088475;28;20206;-76
2023/06/19 08:59:28;;;;;;;4.03;3.38;;;;;;;26.27;42.94;94721.06;5100753;28;20221;-76
2023/06/19 09:01:56;;;;;;;4.65;3.40;;;;;;;26.44;42.69;94719.97;5111655;28;20232;-74
2023/06/19 09:04:26;;;;;;;3.78;3.30;;;;;;;26.05;40.97;94732.59;5111995;28;20228;-73
2023/06/19 09:06:55;;;;;;;3.40;3.10;;;;;;;26.13;40.05;94727.69;5111860;28;20204;-74
2023/06/19 09:09:24;;;;;;;3.95;3.35;;;;;;;26.44;39.89;94723.53;5117422;27;20222;-75
2023/06/19 09:12:01;;;;;;;3.97;3.42;;;;;;;26.66;39.42;94715.53;5107938;28;20194;-75
2023/06/19 09:14:35;;;;;;;4.40;3.70;;;;;;;26.42;41.31;94714.06;5111309;28;20307;-75
2023/06/19 09:17:03;;;;;;;5.30;3.30;;;;;;;26.63;41.81;94716.44;5119087;27;20210;-74
2023/06/19 09:19:31;;;;;;;3.88;3.47;;;;;;;26.01;38.68;94719.97;5096467;28;20308;-74
2023/06/19 09:22:03;;;;;;;4.43;3.45;;;;;;;26.29;38.81;94718.69;5105242;28;20202;-75
2023/06/19 09:24:37;;;;;;;4.28;3.33;;;;;;;26.62;38.85;94714.06;5096624;28;20216;-75
2023/06/19 09:27:09;;;;;;;6.50;3.63;;;;;;;26.09;39.06;94727.78;5111898;27;20296;-75
2023/06/19 09:29:38;;;;;;;6.35;3.10;;;;;;;26.82;39.14;94718.38;5098969;28;20704;-75
2023/06/19 09:32:18;;;;;;;3.33;3.00;;;;;;;27.35;40.21;94708.06;5116770;27;20189;-75
2023/06/19 09:34:45;;;;;;;4.55;3.30;;;;;;;27.34;37.73;94703.72;5094221;27;20225;-74
2023/06/19 09:37:14;;;;;;;4.90;3.85;;;;;;;27.24;39.21;94710.31;5091126;28;20206;-74
2023/06/19 09:39:42;;;;;;;3.70;3.03;;;;;;;26.75;38.91;94713.00;5096099;28;20221;-75
2023/06/19 09:42:10;;;;;;;3.50;3.20;;;;;;;26.17;38.20;94718.09;5098293;28;20298;-74
2023/06/19 09:44:42;;;;;;;3.63;3.30;;;;;;;26.82;38.49;94707.25;5096920;28;20233;-75
2023/06/19 09:47:18;;;;;;;3.70;3.30;;;;;;;26.36;38.29;94710.22;5110937;28;20288;-75
2023/06/19 09:49:51;;;;;;;3.58;3.20;;;;;;;25.99;39.84;94723.19;5110956;28;20201;-72
2023/06/19 09:52:22;;;;;;;4.68;3.28;;;;;;;26.28;40.67;94711.53;5110049;28;20278;-75
2023/06/19 09:54:49;;;;;;;3.92;3.53;;;;;;;26.15;39.65;94714.94;5110903;28;20198;-75
2023/06/19 09:57:16;;;;;;;4.47;3.60;;;;;;;26.40;39.55;94708.16;5121714;27;20202;-76
2023/06/19 09:59:44;;;;;;;4.78;3.58;;;;;;;25.98;41.43;94710.50;5101628;28;20643;-75
2023/06/19 10:02:12;;;;;;;4.07;3.67;;;;;;;25.79;40.62;94714.03;5110897;28;20202;-75
2023/06/19 10:04:46;;;;;;;4.90;3.55;;;;;;;26.10;40.49;94712.66;5110985;28;20580;-75
2023/06/19 10:07:17;;;;;;;4.15;3.40;;;;;;;26.50;39.82;94701.63;5110610;28;20248;-75
2023/06/19 10:10:00;;;;;;;4.57;3.40;;;;;;;26.52;40.57;94701.94;5109643;28;20418;-75
2023/06/19 10:12:38;;;;;;;5.72;3.55;;;;;;;26.47;40.18;94702.47;5109633;28;20198;-74
2023/06/19 10:15:14;;;;;;;4.35;3.40;;;;;;;26.28;38.77;94689.31;5112776;27;21479;-75
2023/06/19 10:17:46;;;;;;;3.80;3.40;;;;;;;26.32;39.55;94684.50;5108326;27;20202;-74
2023/06/19 10:20:24;;;;;;;5.72;3.45;;;;;;;26.62;39.91;94683.50;5099962;28;20239;-75
2023/06/19 10:22:53;;;;;;;4.03;3.60;;;;;;;26.43;39.78;94691.41;5096460;28;20213;-73
2023/06/19 10:25:25;;;;;;;4.20;3.58;;;;;;;26.71;39.80;94678.91;5096185;28;20210;-75
2023/06/19 10:27:52;;;;;;;3.70;3.25;;;;;;;26.62;37.90;94687.06;5110372;28;20281;-74
2023/06/19 10:30:20;;;;;;;4.03;3.40;;;;;;;26.35;37.38;94678.88;5109409;28;20216;-75
2023/06/19 10:32:47;;;;;;;3.53;3.03;;;;;;;26.72;35.11;94672.16;5122203;27;20197;-75
2023/06/19 10:35:15;;;;;;;2.90;2.67;;;;;;;26.86;35.92;94669.06;5098269;28;20210;-75
2023/06/19 10:37:43;;;;;;;5.05;3.05;;;;;;;27.04;35.88;94673.47;5109655;28;20270;-75
2023/06/19 10:40:12;;;;;;;4.82;3.30;;;;;;;27.35;39.23;94674.69;5108437;28;20252;-74
2023/06/19 10:42:40;;;;;;;5.32;3.03;;;;;;;27.00;36.52;94672.75;5111693;27;21870;-75
2023/06/19 10:45:09;;;;;;;4.43;3.10;;;;;;;27.30;36.76;94672.44;5120258;27;20198;-75
2023/06/19 10:47:37;;;;;;;4.13;3.10;;;;;;;27.71;35.18;94676.63;5115655;27;20202;-74
2023/06/19 10:50:04;;;;;;;3.20;2.90;;;;;;;27.42;35.92;94670.97;5103233;28;20205;-75
2023/06/19 10:52:30;;;;;;;4.05;3.50;;;;;;;27.03;38.19;94666.34;5104570;28;20604;-74
2023/06/19 10:54:58;;;;;;;4.43;3.42;;;;;;;27.20;40.51;94677.03;5089532;28;20300;-75
2023/06/19 10:57:29;;;;;;;3.72;3.20;;;;;;;27.20;38.58;94671.47;5105680;27;20335;-72
2023/06/19 10:59:58;;;;;;;3.90;3.50;;;;;;;27.53;38.13;94675.03;5106475;27;20289;-74
2023/06/19 11:02:26;;;;;;;4.28;3.20;;;;;;;27.65;37.43;94670.00;5109165;28;20293;-73
2023/06/19 11:04:54;;;;;;;4.03;3.30;;;;;;;27.44;39.32;94669.31;5108610;27;20227;-75
2023/06/19 11:07:21;;;;;;;4.97;3.45;;;;;;;27.62;40.54;94673.66;5108847;28;20617;-74
2023/06/19 11:09:48;;;;;;;4.75;3.33;;;;;;;27.36;39.34;94665.13;5107451;28;20199;-75
2023/06/19 11:12:20;;;;;;;5.38;3.80;;;;;;;27.91;40.82;94663.34;5114482;27;20659;-75
2023/06/19 11:14:48;;;;;;;4.80;3.95;;;;;;;28.41;41.40;94662.03;5115716;27;20198;-75
2023/06/19 11:17:18;;;;;;;5.75;4.05;;;;;;;28.67;40.44;94660.84;5088960;28;20668;-75
2023/06/19 11:19:45;;;;;;;4.15;3.75;;;;;;;28.53;39.05;94650.91;5101584;27;20200;-75
2023/06/19 11:22:12;;;;;;;4.10;3.70;;;;;;;28.36;38.81;94666.13;5104275;27;20201;-75
2023/06/19 11:24:44;;;;;;;5.28;4.10;;;;;;;28.74;38.71;94657.06;5108754;28;20205;-75
2023/06/19 11:27:19;;;;;;;5.30;3.95;;;;;;;28.22;39.13;94660.94;5107067;27;20258;-75
2023/06/19 11:29:45;;;;;;;5.05;4.03;;;;;;;27.81;41.56;94658.84;5103961;27;20204;-75
2023/06/19 11:32:22;;;;;;;7.30;4.65;;;;;;;27.55;41.57;94652.34;5107716;28;20289;-75
2023/06/19 11:34:49;;;;;;;4.10;3.70;;;;;;;27.65;40.78;94661.66;5103979;27;20212;-75
2023/06/19 11:37:17;;;;;;;4.82;3.92;;;;;;;27.34;41.09;94653.63;5104566;28;20202;-73